sensor_id;sensor_type;location;lat;lon;timestamp;P1;durP1;ratioP1;P2;durP2;ratioP2
15254;SDS011;7730;49.610;11.136;2023-04-07T00:01:55;12.60;;;6.63;;
15254;SDS011;7730;49.610;11.136;2023-04-07T00:04:22;12.40;;;6.57;;
15254;SDS011;7730;49.610;11.136;2023-04-07T00:06:49;14.90;;;6.60;;
15254;SDS011;7730;49.610;11.136;2023-04-07T00:09:16;13.10;;;6.50;;
15254;SDS011;7730;49.610;11.136;2023-04-07T00:11:43;14.00;;;6.82;;
15254;SDS011;7730;49.610;11.136;2023-04-07T00:14:10;13.07;;;6.55;;
15254;SDS011;7730;49.610;11.136;2023-04-07T00:16:37;12.95;;;6.95;;
15254;SDS011;7730;49.610;11.136;2023-04-07T00:19:05;12.73;;;6.28;;
15254;SDS011;7730;49.610;11.136;2023-04-07T00:21:32;15.13;;;7.03;;
15254;SDS011;7730;49.610;11.136;2023-04-07T00:23:59;13.30;;;6.80;;
15254;SDS011;7730;49.610;11.136;2023-04-07T00:26:26;13.07;;;6.50;;
15254;SDS011;7730;49.610;11.136;2023-04-07T00:28:56;13.27;;;6.97;;
15254;SDS011;7730;49.610;11.136;2023-04-07T00:31:23;12.82;;;6.82;;
15254;SDS011;7730;49.610;11.136;2023-04-07T00:33:50;13.73;;;6.78;;
15254;SDS011;7730;49.610;11.136;2023-04-07T00:36:19;13.07;;;6.53;;
15254;SDS011;7730;49.610;11.136;2023-04-07T00:38:46;13.98;;;6.80;;
15254;SDS011;7730;49.610;11.136;2023-04-07T00:41:13;13.57;;;7.10;;
15254;SDS011;7730;49.610;11.136;2023-04-07T00:43:40;14.35;;;7.18;;
15254;SDS011;7730;49.610;11.136;2023-04-07T00:46:07;13.95;;;7.13;;
15254;SDS011;7730;49.610;11.136;2023-04-07T00:48:35;12.60;;;6.40;;
15254;SDS011;7730;49.610;11.136;2023-04-07T00:51:02;13.20;;;6.65;;
15254;SDS011;7730;49.610;11.136;2023-04-07T00:53:31;13.57;;;6.72;;
15254;SDS011;7730;49.610;11.136;2023-04-07T00:55:58;12.60;;;6.75;;
15254;SDS011;7730;49.610;11.136;2023-04-07T00:58:25;13.70;;;7.30;;
15254;SDS011;7730;49.610;11.136;2023-04-07T01:00:54;14.02;;;7.22;;
15254;SDS011;7730;49.610;11.136;2023-04-07T01:03:27;12.65;;;6.57;;
15254;SDS011;7730;49.610;11.136;2023-04-07T01:05:57;13.50;;;7.07;;
15254;SDS011;7730;49.610;11.136;2023-04-07T01:08:27;13.38;;;6.85;;
15254;SDS011;7730;49.610;11.136;2023-04-07T01:10:59;14.82;;;7.05;;
15254;SDS011;7730;49.610;11.136;2023-04-07T01:13:29;13.40;;;6.97;;
15254;SDS011;7730;49.610;11.136;2023-04-07T01:15:59;13.95;;;7.18;;
15254;SDS011;7730;49.610;11.136;2023-04-07T01:18:27;12.93;;;6.85;;
15254;SDS011;7730;49.610;11.136;2023-04-07T01:20:55;13.43;;;7.20;;
15254;SDS011;7730;49.610;11.136;2023-04-07T01:23:29;12.80;;;7.00;;
15254;SDS011;7730;49.610;11.136;2023-04-07T01:26:10;13.57;;;6.90;;
15254;SDS011;7730;49.610;11.136;2023-04-07T01:28:49;12.85;;;6.90;;
15254;SDS011;7730;49.610;11.136;2023-04-07T01:31:18;13.48;;;6.82;;
15254;SDS011;7730;49.610;11.136;2023-04-07T01:33:46;13.45;;;6.70;;
15254;SDS011;7730;49.610;11.136;2023-04-07T01:36:14;13.38;;;6.68;;
15254;SDS011;7730;49.610;11.136;2023-04-07T01:38:42;13.20;;;7.15;;
15254;SDS011;7730;49.610;11.136;2023-04-07T01:41:10;13.55;;;7.10;;
15254;SDS011;7730;49.610;11.136;2023-04-07T01:43:38;13.48;;;6.50;;
15254;SDS011;7730;49.610;11.136;2023-04-07T01:46:06;13.30;;;6.80;;
15254;SDS011;7730;49.610;11.136;2023-04-07T01:48:35;12.98;;;6.82;;
15254;SDS011;7730;49.610;11.136;2023-04-07T01:51:03;12.60;;;6.53;;
15254;SDS011;7730;49.610;11.136;2023-04-07T01:53:30;14.15;;;7.00;;
15254;SDS011;7730;49.610;11.136;2023-04-07T01:55:57;15.60;;;7.30;;
15254;SDS011;7730;49.610;11.136;2023-04-07T01:58:24;13.70;;;6.88;;
15254;SDS011;7730;49.610;11.136;2023-04-07T02:00:51;13.60;;;7.20;;
15254;SDS011;7730;49.610;11.136;2023-04-07T02:03:19;14.68;;;7.82;;
15254;SDS011;7730;49.610;11.136;2023-04-07T02:05:50;13.65;;;7.40;;
15254;SDS011;7730;49.610;11.136;2023-04-07T02:08:18;14.50;;;8.13;;
15254;SDS011;7730;49.610;11.136;2023-04-07T02:10:47;14.52;;;7.53;;
15254;SDS011;7730;49.610;11.136;2023-04-07T02:13:15;13.60;;;7.45;;
15254;SDS011;7730;49.610;11.136;2023-04-07T02:15:44;13.13;;;6.88;;
15254;SDS011;7730;49.610;11.136;2023-04-07T02:18:12;13.10;;;6.70;;
15254;SDS011;7730;49.610;11.136;2023-04-07T02:20:39;13.73;;;7.75;;
15254;SDS011;7730;49.610;11.136;2023-04-07T02:23:08;13.80;;;7.55;;
15254;SDS011;7730;49.610;11.136;2023-04-07T02:25:35;14.23;;;7.32;;
15254;SDS011;7730;49.610;11.136;2023-04-07T02:28:03;14.05;;;7.65;;
15254;SDS011;7730;49.610;11.136;2023-04-07T02:30:31;14.10;;;7.50;;
15254;SDS011;7730;49.610;11.136;2023-04-07T02:32:58;14.20;;;7.25;;
15254;SDS011;7730;49.610;11.136;2023-04-07T02:35:25;14.32;;;7.32;;
15254;SDS011;7730;49.610;11.136;2023-04-07T02:37:52;14.32;;;7.22;;
15254;SDS011;7730;49.610;11.136;2023-04-07T02:40:20;14.48;;;8.05;;
15254;SDS011;7730;49.610;11.136;2023-04-07T02:42:47;13.38;;;7.40;;
15254;SDS011;7730;49.610;11.136;2023-04-07T02:45:14;13.95;;;8.07;;
15254;SDS011;7730;49.610;11.136;2023-04-07T02:47:41;14.00;;;7.75;;
15254;SDS011;7730;49.610;11.136;2023-04-07T02:50:08;13.82;;;7.90;;
15254;SDS011;7730;49.610;11.136;2023-04-07T02:52:36;13.25;;;7.43;;
15254;SDS011;7730;49.610;11.136;2023-04-07T02:55:03;14.02;;;7.43;;
15254;SDS011;7730;49.610;11.136;2023-04-07T02:57:31;13.38;;;6.82;;
15254;SDS011;7730;49.610;11.136;2023-04-07T02:59:58;13.35;;;7.25;;
15254;SDS011;7730;49.610;11.136;2023-04-07T03:02:25;14.20;;;6.75;;
15254;SDS011;7730;49.610;11.136;2023-04-07T03:04:52;12.95;;;7.10;;
15254;SDS011;7730;49.610;11.136;2023-04-07T03:07:19;13.43;;;6.90;;
15254;SDS011;7730;49.610;11.136;2023-04-07T03:09:46;12.98;;;6.95;;
15254;SDS011;7730;49.610;11.136;2023-04-07T03:12:13;14.20;;;7.50;;
15254;SDS011;7730;49.610;11.136;2023-04-07T03:14:42;14.35;;;7.60;;
15254;SDS011;7730;49.610;11.136;2023-04-07T03:17:09;13.33;;;7.47;;
15254;SDS011;7730;49.610;11.136;2023-04-07T03:19:36;14.18;;;6.93;;
15254;SDS011;7730;49.610;11.136;2023-04-07T03:22:03;12.77;;;7.05;;
15254;SDS011;7730;49.610;11.136;2023-04-07T03:24:30;13.70;;;7.17;;
15254;SDS011;7730;49.610;11.136;2023-04-07T03:26:57;12.90;;;6.77;;
15254;SDS011;7730;49.610;11.136;2023-04-07T03:29:24;13.75;;;7.53;;
15254;SDS011;7730;49.610;11.136;2023-04-07T03:31:52;13.35;;;7.10;;
15254;SDS011;7730;49.610;11.136;2023-04-07T03:34:19;13.47;;;6.77;;
15254;SDS011;7730;49.610;11.136;2023-04-07T03:36:46;13.25;;;6.95;;
15254;SDS011;7730;49.610;11.136;2023-04-07T03:39:13;13.48;;;7.07;;
15254;SDS011;7730;49.610;11.136;2023-04-07T03:41:40;12.38;;;6.55;;
15254;SDS011;7730;49.610;11.136;2023-04-07T03:44:07;12.70;;;6.72;;
15254;SDS011;7730;49.610;11.136;2023-04-07T03:46:34;12.80;;;6.70;;
15254;SDS011;7730;49.610;11.136;2023-04-07T03:49:02;13.13;;;6.93;;
15254;SDS011;7730;49.610;11.136;2023-04-07T03:51:30;13.23;;;7.30;;
15254;SDS011;7730;49.610;11.136;2023-04-07T03:53:58;13.30;;;7.25;;
15254;SDS011;7730;49.610;11.136;2023-04-07T03:56:25;13.75;;;6.82;;
15254;SDS011;7730;49.610;11.136;2023-04-07T03:58:52;13.25;;;7.03;;
15254;SDS011;7730;49.610;11.136;2023-04-07T04:01:19;14.00;;;7.17;;
15254;SDS011;7730;49.610;11.136;2023-04-07T04:03:47;13.27;;;6.70;;
15254;SDS011;7730;49.610;11.136;2023-04-07T04:06:16;14.23;;;7.03;;
15254;SDS011;7730;49.610;11.136;2023-04-07T04:08:43;14.15;;;7.35;;
15254;SDS011;7730;49.610;11.136;2023-04-07T04:11:10;13.65;;;7.05;;
15254;SDS011;7730;49.610;11.136;2023-04-07T04:13:37;14.05;;;7.47;;
15254;SDS011;7730;49.610;11.136;2023-04-07T04:16:04;13.40;;;7.18;;
15254;SDS011;7730;49.610;11.136;2023-04-07T04:18:31;13.40;;;7.28;;
15254;SDS011;7730;49.610;11.136;2023-04-07T04:20:58;14.05;;;7.53;;
15254;SDS011;7730;49.610;11.136;2023-04-07T04:23:27;13.75;;;7.63;;
15254;SDS011;7730;49.610;11.136;2023-04-07T04:25:54;14.48;;;7.60;;
15254;SDS011;7730;49.610;11.136;2023-04-07T04:28:24;14.23;;;8.07;;
15254;SDS011;7730;49.610;11.136;2023-04-07T04:30:51;15.27;;;7.80;;
15254;SDS011;7730;49.610;11.136;2023-04-07T04:33:18;13.73;;;7.53;;
15254;SDS011;7730;49.610;11.136;2023-04-07T04:35:45;14.73;;;7.75;;
15254;SDS011;7730;49.610;11.136;2023-04-07T04:38:12;13.87;;;7.83;;
15254;SDS011;7730;49.610;11.136;2023-04-07T04:40:40;13.77;;;7.40;;
15254;SDS011;7730;49.610;11.136;2023-04-07T04:43:08;13.57;;;7.10;;
15254;SDS011;7730;49.610;11.136;2023-04-07T04:45:35;13.07;;;6.90;;
15254;SDS011;7730;49.610;11.136;2023-04-07T04:48:02;13.53;;;7.17;;
15254;SDS011;7730;49.610;11.136;2023-04-07T04:50:29;12.88;;;6.65;;
15254;SDS011;7730;49.610;11.136;2023-04-07T04:52:55;13.77;;;7.32;;
15254;SDS011;7730;49.610;11.136;2023-04-07T04:55:22;13.73;;;6.93;;
15254;SDS011;7730;49.610;11.136;2023-04-07T04:57:51;13.23;;;6.80;;
15254;SDS011;7730;49.610;11.136;2023-04-07T05:00:18;14.60;;;6.85;;
15254;SDS011;7730;49.610;11.136;2023-04-07T05:02:46;13.10;;;7.00;;
15254;SDS011;7730;49.610;11.136;2023-04-07T05:05:13;12.63;;;6.20;;
15254;SDS011;7730;49.610;11.136;2023-04-07T05:07:40;13.77;;;7.18;;
15254;SDS011;7730;49.610;11.136;2023-04-07T05:10:07;13.13;;;6.75;;
15254;SDS011;7730;49.610;11.136;2023-04-07T05:12:34;13.43;;;6.32;;
15254;SDS011;7730;49.610;11.136;2023-04-07T05:15:03;12.63;;;7.23;;
15254;SDS011;7730;49.610;11.136;2023-04-07T05:17:30;14.55;;;7.15;;
15254;SDS011;7730;49.610;11.136;2023-04-07T05:19:57;13.13;;;7.03;;
15254;SDS011;7730;49.610;11.136;2023-04-07T05:22:24;13.18;;;6.90;;
15254;SDS011;7730;49.610;11.136;2023-04-07T05:24:51;13.17;;;6.90;;
15254;SDS011;7730;49.610;11.136;2023-04-07T05:27:18;14.07;;;7.00;;
15254;SDS011;7730;49.610;11.136;2023-04-07T05:29:45;13.07;;;6.68;;
15254;SDS011;7730;49.610;11.136;2023-04-07T05:32:14;14.15;;;6.90;;
15254;SDS011;7730;49.610;11.136;2023-04-07T05:34:41;13.27;;;7.60;;
15254;SDS011;7730;49.610;11.136;2023-04-07T05:37:08;14.60;;;7.88;;
15254;SDS011;7730;49.610;11.136;2023-04-07T05:39:35;13.20;;;7.20;;
15254;SDS011;7730;49.610;11.136;2023-04-07T05:42:02;14.18;;;7.28;;
15254;SDS011;7730;49.610;11.136;2023-04-07T05:44:29;13.98;;;6.82;;
15254;SDS011;7730;49.610;11.136;2023-04-07T05:46:56;12.77;;;6.47;;
15254;SDS011;7730;49.610;11.136;2023-04-07T05:49:24;12.55;;;6.55;;
15254;SDS011;7730;49.610;11.136;2023-04-07T05:51:52;12.65;;;6.43;;
15254;SDS011;7730;49.610;11.136;2023-04-07T05:54:19;13.87;;;6.43;;
15254;SDS011;7730;49.610;11.136;2023-04-07T05:56:46;12.38;;;6.45;;
15254;SDS011;7730;49.610;11.136;2023-04-07T05:59:12;13.23;;;6.60;;
15254;SDS011;7730;49.610;11.136;2023-04-07T06:01:40;13.35;;;6.88;;
15254;SDS011;7730;49.610;11.136;2023-04-07T06:04:07;13.02;;;6.68;;
15254;SDS011;7730;49.610;11.136;2023-04-07T06:06:36;13.40;;;6.63;;
15254;SDS011;7730;49.610;11.136;2023-04-07T06:09:03;14.32;;;7.10;;
15254;SDS011;7730;49.610;11.136;2023-04-07T06:11:30;14.07;;;7.30;;
15254;SDS011;7730;49.610;11.136;2023-04-07T06:13:57;16.45;;;9.05;;
15254;SDS011;7730;49.610;11.136;2023-04-07T06:16:24;14.23;;;7.68;;
15254;SDS011;7730;49.610;11.136;2023-04-07T06:18:51;15.77;;;8.25;;
15254;SDS011;7730;49.610;11.136;2023-04-07T06:21:18;14.68;;;7.88;;
15254;SDS011;7730;49.610;11.136;2023-04-07T06:23:46;14.90;;;7.82;;
15254;SDS011;7730;49.610;11.136;2023-04-07T06:26:13;14.43;;;8.00;;
15254;SDS011;7730;49.610;11.136;2023-04-07T06:28:40;14.85;;;8.00;;
15254;SDS011;7730;49.610;11.136;2023-04-07T06:31:07;15.77;;;8.70;;
15254;SDS011;7730;49.610;11.136;2023-04-07T06:33:34;14.93;;;7.90;;
15254;SDS011;7730;49.610;11.136;2023-04-07T06:36:01;13.77;;;7.20;;
15254;SDS011;7730;49.610;11.136;2023-04-07T06:38:28;14.10;;;7.13;;
15254;SDS011;7730;49.610;11.136;2023-04-07T06:40:57;13.68;;;6.93;;
15254;SDS011;7730;49.610;11.136;2023-04-07T06:43:24;13.55;;;6.97;;
15254;SDS011;7730;49.610;11.136;2023-04-07T06:45:51;13.95;;;6.90;;
15254;SDS011;7730;49.610;11.136;2023-04-07T06:48:18;13.70;;;6.60;;
15254;SDS011;7730;49.610;11.136;2023-04-07T06:50:45;13.50;;;7.03;;
15254;SDS011;7730;49.610;11.136;2023-04-07T06:53:12;13.70;;;7.43;;
15254;SDS011;7730;49.610;11.136;2023-04-07T06:55:39;14.00;;;7.53;;
15254;SDS011;7730;49.610;11.136;2023-04-07T06:58:07;14.02;;;7.07;;
15254;SDS011;7730;49.610;11.136;2023-04-07T07:00:35;15.00;;;7.30;;
15254;SDS011;7730;49.610;11.136;2023-04-07T07:03:02;13.10;;;6.90;;
15254;SDS011;7730;49.610;11.136;2023-04-07T07:05:29;13.53;;;7.03;;
15254;SDS011;7730;49.610;11.136;2023-04-07T07:07:56;16.70;;;8.15;;
15254;SDS011;7730;49.610;11.136;2023-04-07T07:10:23;14.38;;;7.43;;
15254;SDS011;7730;49.610;11.136;2023-04-07T07:12:50;15.45;;;7.90;;
15254;SDS011;7730;49.610;11.136;2023-04-07T07:15:19;15.15;;;8.15;;
15254;SDS011;7730;49.610;11.136;2023-04-07T07:17:46;14.80;;;8.48;;
15254;SDS011;7730;49.610;11.136;2023-04-07T07:20:12;14.80;;;7.97;;
15254;SDS011;7730;49.610;11.136;2023-04-07T07:22:40;15.07;;;8.05;;
15254;SDS011;7730;49.610;11.136;2023-04-07T07:25:07;16.00;;;8.07;;
15254;SDS011;7730;49.610;11.136;2023-04-07T07:27:34;14.25;;;7.47;;
15254;SDS011;7730;49.610;11.136;2023-04-07T07:30:01;14.55;;;7.93;;
15254;SDS011;7730;49.610;11.136;2023-04-07T07:32:29;15.37;;;8.60;;
15254;SDS011;7730;49.610;11.136;2023-04-07T07:34:56;15.80;;;9.00;;
15254;SDS011;7730;49.610;11.136;2023-04-07T07:37:23;15.02;;;8.18;;
15254;SDS011;7730;49.610;11.136;2023-04-07T07:39:50;16.77;;;8.63;;
15254;SDS011;7730;49.610;11.136;2023-04-07T07:42:17;15.68;;;8.70;;
15254;SDS011;7730;49.610;11.136;2023-04-07T07:44:44;16.63;;;8.10;;
15254;SDS011;7730;49.610;11.136;2023-04-07T07:47:11;15.43;;;8.73;;
15254;SDS011;7730;49.610;11.136;2023-04-07T07:49:40;15.13;;;8.38;;
15254;SDS011;7730;49.610;11.136;2023-04-07T07:52:07;14.02;;;7.53;;
15254;SDS011;7730;49.610;11.136;2023-04-07T07:54:34;16.17;;;8.68;;
15254;SDS011;7730;49.610;11.136;2023-04-07T07:57:01;15.47;;;8.60;;
15254;SDS011;7730;49.610;11.136;2023-04-07T07:59:30;14.85;;;8.07;;
15254;SDS011;7730;49.610;11.136;2023-04-07T08:01:57;15.03;;;8.50;;
15254;SDS011;7730;49.610;11.136;2023-04-07T08:04:24;15.10;;;8.27;;
15254;SDS011;7730;49.610;11.136;2023-04-07T08:06:52;16.27;;;8.75;;
15254;SDS011;7730;49.610;11.136;2023-04-07T08:09:20;14.93;;;8.45;;
15254;SDS011;7730;49.610;11.136;2023-04-07T08:11:47;16.17;;;8.82;;
15254;SDS011;7730;49.610;11.136;2023-04-07T08:14:15;14.73;;;8.10;;
15254;SDS011;7730;49.610;11.136;2023-04-07T08:16:42;16.30;;;8.82;;
15254;SDS011;7730;49.610;11.136;2023-04-07T08:19:09;15.23;;;8.32;;
15254;SDS011;7730;49.610;11.136;2023-04-07T08:21:37;15.27;;;8.70;;
15254;SDS011;7730;49.610;11.136;2023-04-07T08:24:06;14.75;;;8.80;;
15254;SDS011;7730;49.610;11.136;2023-04-07T08:26:33;15.02;;;7.88;;
15254;SDS011;7730;49.610;11.136;2023-04-07T08:29:00;16.45;;;7.97;;
15254;SDS011;7730;49.610;11.136;2023-04-07T08:31:27;15.32;;;8.50;;
15254;SDS011;7730;49.610;11.136;2023-04-07T08:33:54;15.55;;;8.38;;
15254;SDS011;7730;49.610;11.136;2023-04-07T08:36:23;15.65;;;9.02;;
15254;SDS011;7730;49.610;11.136;2023-04-07T08:38:50;16.13;;;8.90;;
15254;SDS011;7730;49.610;11.136;2023-04-07T08:41:20;15.93;;;8.75;;
15254;SDS011;7730;49.610;11.136;2023-04-07T08:43:49;15.40;;;9.23;;
15254;SDS011;7730;49.610;11.136;2023-04-07T08:46:18;16.08;;;9.13;;
15254;SDS011;7730;49.610;11.136;2023-04-07T08:48:47;16.88;;;9.35;;
15254;SDS011;7730;49.610;11.136;2023-04-07T08:51:15;16.98;;;8.90;;
15254;SDS011;7730;49.610;11.136;2023-04-07T08:53:47;17.55;;;8.63;;
15254;SDS011;7730;49.610;11.136;2023-04-07T08:56:15;17.05;;;8.95;;
15254;SDS011;7730;49.610;11.136;2023-04-07T08:58:43;16.60;;;9.02;;
15254;SDS011;7730;49.610;11.136;2023-04-07T09:01:11;17.67;;;9.32;;
15254;SDS011;7730;49.610;11.136;2023-04-07T09:03:38;18.42;;;9.98;;
15254;SDS011;7730;49.610;11.136;2023-04-07T09:06:05;16.30;;;8.90;;
15254;SDS011;7730;49.610;11.136;2023-04-07T09:08:33;16.05;;;9.38;;
15254;SDS011;7730;49.610;11.136;2023-04-07T09:11:00;16.33;;;9.55;;
15254;SDS011;7730;49.610;11.136;2023-04-07T09:13:27;18.27;;;9.38;;
15254;SDS011;7730;49.610;11.136;2023-04-07T09:15:57;16.80;;;9.17;;
15254;SDS011;7730;49.610;11.136;2023-04-07T09:18:26;15.20;;;8.57;;
15254;SDS011;7730;49.610;11.136;2023-04-07T09:20:56;15.73;;;9.13;;
15254;SDS011;7730;49.610;11.136;2023-04-07T09:23:26;15.73;;;9.18;;
15254;SDS011;7730;49.610;11.136;2023-04-07T09:25:54;16.00;;;9.05;;
15254;SDS011;7730;49.610;11.136;2023-04-07T09:28:23;17.23;;;9.65;;
15254;SDS011;7730;49.610;11.136;2023-04-07T09:30:51;16.83;;;9.43;;
15254;SDS011;7730;49.610;11.136;2023-04-07T09:33:26;17.60;;;9.43;;
15254;SDS011;7730;49.610;11.136;2023-04-07T09:35:54;16.60;;;9.38;;
15254;SDS011;7730;49.610;11.136;2023-04-07T09:38:21;15.48;;;9.02;;
15254;SDS011;7730;49.610;11.136;2023-04-07T09:40:48;16.02;;;9.57;;
15254;SDS011;7730;49.610;11.136;2023-04-07T09:43:16;16.57;;;9.50;;
15254;SDS011;7730;49.610;11.136;2023-04-07T09:45:43;17.03;;;9.83;;
15254;SDS011;7730;49.610;11.136;2023-04-07T09:48:17;14.02;;;7.60;;
15254;SDS011;7730;49.610;11.136;2023-04-07T09:50:45;17.20;;;10.07;;
15254;SDS011;7730;49.610;11.136;2023-04-07T09:53:13;17.20;;;9.68;;
15254;SDS011;7730;49.610;11.136;2023-04-07T09:55:41;14.02;;;7.20;;
15254;SDS011;7730;49.610;11.136;2023-04-07T09:58:08;17.77;;;9.77;;
15254;SDS011;7730;49.610;11.136;2023-04-07T10:00:38;15.80;;;9.07;;
15254;SDS011;7730;49.610;11.136;2023-04-07T10:03:05;16.58;;;9.68;;
15254;SDS011;7730;49.610;11.136;2023-04-07T10:05:33;16.65;;;9.48;;
15254;SDS011;7730;49.610;11.136;2023-04-07T10:08:03;14.65;;;7.82;;
15254;SDS011;7730;49.610;11.136;2023-04-07T10:10:31;16.80;;;10.17;;
15254;SDS011;7730;49.610;11.136;2023-04-07T10:12:58;18.48;;;10.48;;
15254;SDS011;7730;49.610;11.136;2023-04-07T10:15:26;16.85;;;9.57;;
15254;SDS011;7730;49.610;11.136;2023-04-07T10:17:53;18.35;;;10.32;;
15254;SDS011;7730;49.610;11.136;2023-04-07T10:20:21;15.77;;;8.90;;
15254;SDS011;7730;49.610;11.136;2023-04-07T10:22:49;16.95;;;9.80;;
15254;SDS011;7730;49.610;11.136;2023-04-07T10:25:18;17.25;;;9.95;;
15254;SDS011;7730;49.610;11.136;2023-04-07T10:27:48;17.48;;;10.25;;
15254;SDS011;7730;49.610;11.136;2023-04-07T10:30:17;17.55;;;9.48;;
15254;SDS011;7730;49.610;11.136;2023-04-07T10:32:46;17.85;;;10.55;;
15254;SDS011;7730;49.610;11.136;2023-04-07T10:35:13;17.88;;;9.95;;
15254;SDS011;7730;49.610;11.136;2023-04-07T10:37:42;16.88;;;10.27;;
15254;SDS011;7730;49.610;11.136;2023-04-07T10:40:29;17.40;;;10.40;;
15254;SDS011;7730;49.610;11.136;2023-04-07T10:42:56;18.15;;;10.13;;
15254;SDS011;7730;49.610;11.136;2023-04-07T10:48:11;16.67;;;10.18;;
15254;SDS011;7730;49.610;11.136;2023-04-07T10:53:08;17.30;;;10.20;;
15254;SDS011;7730;49.610;11.136;2023-04-07T10:55:37;17.48;;;10.43;;
15254;SDS011;7730;49.610;11.136;2023-04-07T11:03:39;16.35;;;9.35;;
15254;SDS011;7730;49.610;11.136;2023-04-07T11:06:07;15.05;;;7.93;;
15254;SDS011;7730;49.610;11.136;2023-04-07T11:08:35;17.40;;;9.45;;
15254;SDS011;7730;49.610;11.136;2023-04-07T11:11:04;14.93;;;7.93;;
15254;SDS011;7730;49.610;11.136;2023-04-07T11:13:39;15.70;;;7.82;;
15254;SDS011;7730;49.610;11.136;2023-04-07T11:16:06;14.98;;;8.18;;
15254;SDS011;7730;49.610;11.136;2023-04-07T11:18:34;15.05;;;8.95;;
15254;SDS011;7730;49.610;11.136;2023-04-07T11:21:01;15.75;;;7.97;;
15254;SDS011;7730;49.610;11.136;2023-04-07T11:23:36;15.77;;;9.00;;
15254;SDS011;7730;49.610;11.136;2023-04-07T11:26:05;14.95;;;8.88;;
15254;SDS011;7730;49.610;11.136;2023-04-07T11:28:32;13.40;;;6.72;;
15254;SDS011;7730;49.610;11.136;2023-04-07T11:30:59;13.00;;;6.43;;
15254;SDS011;7730;49.610;11.136;2023-04-07T11:33:27;14.50;;;8.65;;
15254;SDS011;7730;49.610;11.136;2023-04-07T11:35:55;14.25;;;7.43;;
15254;SDS011;7730;49.610;11.136;2023-04-07T11:38:23;14.75;;;7.75;;
15254;SDS011;7730;49.610;11.136;2023-04-07T11:40:51;13.18;;;7.10;;
15254;SDS011;7730;49.610;11.136;2023-04-07T11:43:20;14.80;;;8.70;;
15254;SDS011;7730;49.610;11.136;2023-04-07T11:46:03;14.20;;;8.27;;
15254;SDS011;7730;49.610;11.136;2023-04-07T11:48:31;14.20;;;8.13;;
15254;SDS011;7730;49.610;11.136;2023-04-07T11:50:59;13.50;;;7.50;;
15254;SDS011;7730;49.610;11.136;2023-04-07T11:53:27;13.55;;;7.45;;
15254;SDS011;7730;49.610;11.136;2023-04-07T11:56:00;13.27;;;6.45;;
15254;SDS011;7730;49.610;11.136;2023-04-07T11:58:29;14.85;;;7.85;;
15254;SDS011;7730;49.610;11.136;2023-04-07T12:00:56;14.60;;;8.13;;
15254;SDS011;7730;49.610;11.136;2023-04-07T12:03:23;13.70;;;7.45;;
15254;SDS011;7730;49.610;11.136;2023-04-07T12:05:51;14.77;;;8.07;;
15254;SDS011;7730;49.610;11.136;2023-04-07T12:08:18;13.93;;;7.00;;
15254;SDS011;7730;49.610;11.136;2023-04-07T12:10:45;12.52;;;5.97;;
15254;SDS011;7730;49.610;11.136;2023-04-07T12:13:12;10.23;;;5.15;;
15254;SDS011;7730;49.610;11.136;2023-04-07T12:15:41;13.10;;;6.50;;
15254;SDS011;7730;49.610;11.136;2023-04-07T12:18:13;11.55;;;5.55;;
15254;SDS011;7730;49.610;11.136;2023-04-07T12:20:42;11.98;;;5.70;;
15254;SDS011;7730;49.610;11.136;2023-04-07T12:23:09;14.68;;;8.00;;
15254;SDS011;7730;49.610;11.136;2023-04-07T12:25:36;13.98;;;7.55;;
15254;SDS011;7730;49.610;11.136;2023-04-07T12:28:03;13.95;;;7.00;;
15254;SDS011;7730;49.610;11.136;2023-04-07T12:30:30;14.30;;;8.00;;
15254;SDS011;7730;49.610;11.136;2023-04-07T12:32:59;15.18;;;7.90;;
15254;SDS011;7730;49.610;11.136;2023-04-07T12:35:27;15.00;;;8.18;;
15254;SDS011;7730;49.610;11.136;2023-04-07T12:37:54;13.45;;;7.00;;
15254;SDS011;7730;49.610;11.136;2023-04-07T12:40:22;15.15;;;7.38;;
15254;SDS011;7730;49.610;11.136;2023-04-07T12:42:49;13.73;;;6.78;;
15254;SDS011;7730;49.610;11.136;2023-04-07T12:45:16;13.43;;;7.15;;
15254;SDS011;7730;49.610;11.136;2023-04-07T12:47:43;14.10;;;7.40;;
15254;SDS011;7730;49.610;11.136;2023-04-07T12:50:12;13.05;;;6.88;;
15254;SDS011;7730;49.610;11.136;2023-04-07T12:52:39;14.02;;;7.28;;
15254;SDS011;7730;49.610;11.136;2023-04-07T12:55:06;13.02;;;6.65;;
15254;SDS011;7730;49.610;11.136;2023-04-07T12:57:33;12.73;;;7.05;;
15254;SDS011;7730;49.610;11.136;2023-04-07T13:00:00;13.38;;;6.40;;
15254;SDS011;7730;49.610;11.136;2023-04-07T13:02:27;13.50;;;7.30;;
15254;SDS011;7730;49.610;11.136;2023-04-07T13:04:54;13.35;;;6.78;;
15254;SDS011;7730;49.610;11.136;2023-04-07T13:07:22;14.13;;;7.22;;
15254;SDS011;7730;49.610;11.136;2023-04-07T13:09:49;14.20;;;6.82;;
15254;SDS011;7730;49.610;11.136;2023-04-07T13:12:16;13.23;;;6.85;;
15254;SDS011;7730;49.610;11.136;2023-04-07T13:14:43;13.30;;;6.13;;
15254;SDS011;7730;49.610;11.136;2023-04-07T13:17:10;12.75;;;6.53;;
15254;SDS011;7730;49.610;11.136;2023-04-07T13:19:37;13.68;;;7.30;;
15254;SDS011;7730;49.610;11.136;2023-04-07T13:22:05;13.10;;;6.72;;
15254;SDS011;7730;49.610;11.136;2023-04-07T13:24:33;13.45;;;7.15;;
15254;SDS011;7730;49.610;11.136;2023-04-07T13:27:00;15.05;;;7.18;;
15254;SDS011;7730;49.610;11.136;2023-04-07T13:29:28;13.70;;;7.75;;
15254;SDS011;7730;49.610;11.136;2023-04-07T13:32:03;14.55;;;8.15;;
15254;SDS011;7730;49.610;11.136;2023-04-07T13:34:30;13.60;;;7.30;;
15254;SDS011;7730;49.610;11.136;2023-04-07T13:36:57;15.05;;;7.82;;
15254;SDS011;7730;49.610;11.136;2023-04-07T13:39:26;14.25;;;7.25;;
15254;SDS011;7730;49.610;11.136;2023-04-07T13:41:54;13.57;;;7.35;;
15254;SDS011;7730;49.610;11.136;2023-04-07T13:44:22;14.57;;;7.50;;
15254;SDS011;7730;49.610;11.136;2023-04-07T13:46:49;13.85;;;7.30;;
15254;SDS011;7730;49.610;11.136;2023-04-07T13:49:16;14.02;;;7.68;;
15254;SDS011;7730;49.610;11.136;2023-04-07T13:51:43;13.60;;;7.47;;
15254;SDS011;7730;49.610;11.136;2023-04-07T13:54:10;13.30;;;7.25;;
15254;SDS011;7730;49.610;11.136;2023-04-07T13:56:37;14.23;;;7.60;;
15254;SDS011;7730;49.610;11.136;2023-04-07T13:59:05;15.05;;;8.77;;
15254;SDS011;7730;49.610;11.136;2023-04-07T14:01:33;15.55;;;9.07;;
15254;SDS011;7730;49.610;11.136;2023-04-07T14:04:02;14.63;;;8.25;;
15254;SDS011;7730;49.610;11.136;2023-04-07T14:06:30;15.73;;;8.57;;
15254;SDS011;7730;49.610;11.136;2023-04-07T14:08:57;14.32;;;7.88;;
15254;SDS011;7730;49.610;11.136;2023-04-07T14:11:24;14.13;;;7.70;;
15254;SDS011;7730;49.610;11.136;2023-04-07T14:13:52;13.82;;;7.10;;
15254;SDS011;7730;49.610;11.136;2023-04-07T14:16:20;14.98;;;7.50;;
15254;SDS011;7730;49.610;11.136;2023-04-07T14:18:47;14.40;;;8.27;;
15254;SDS011;7730;49.610;11.136;2023-04-07T14:21:15;14.57;;;8.90;;
15254;SDS011;7730;49.610;11.136;2023-04-07T14:23:42;14.18;;;8.23;;
15254;SDS011;7730;49.610;11.136;2023-04-07T14:26:09;16.23;;;8.90;;
15254;SDS011;7730;49.610;11.136;2023-04-07T14:28:37;14.70;;;8.85;;
15254;SDS011;7730;49.610;11.136;2023-04-07T14:31:04;14.63;;;8.45;;
15254;SDS011;7730;49.610;11.136;2023-04-07T14:33:32;13.68;;;8.63;;
15254;SDS011;7730;49.610;11.136;2023-04-07T14:35:59;15.85;;;8.98;;
15254;SDS011;7730;49.610;11.136;2023-04-07T14:38:26;14.77;;;8.85;;
15254;SDS011;7730;49.610;11.136;2023-04-07T14:40:53;15.35;;;9.23;;
15254;SDS011;7730;49.610;11.136;2023-04-07T14:43:20;15.80;;;9.00;;
15254;SDS011;7730;49.610;11.136;2023-04-07T14:45:47;15.20;;;8.52;;
15254;SDS011;7730;49.610;11.136;2023-04-07T14:48:14;14.98;;;9.25;;